首页
METAR-TAF:

METAR-TAF

机场 :

贝鲁特, 黎巴嫩

纬度: 33-49N, 经度: 035-29E, 海拔: 29米

当前天气观测

该预报发布于4小时和55分钟前的02:00 UTC
风速19节,风向西南
温度 21°C
湿度 73%
气压 1010 hPa
能見度: 8000
少量云层高于3000英尺
少量云层高于18000英尺

METAR: OLBA 250200Z 23019KT 8000 FEW030 FEW180 21/16 Q1010 NOSIG

时间: 09:55 (06:55 UTC)

预报

该预报发布于2小时和55分钟前的04:00 UTC
预报有效从25日的 06点(UTC)到 26日的 12点(UTC)
风速18节,风向西南
能見度: 7000
散云层高于3000英尺
散云层高于8000英尺
几率 30% :
短暂存在
从 25日的 10点(UTC)到 26日的 12点(UTC)
风速12节,风向南转西南,有时为25节阵风
少量云层高于2000英尺, 积雨云.
多云层高于2600英尺
雷暴, 小雨
成为
从 25日的 18点(UTC)到 25日的 20点(UTC)
风速6节,风向
能見度: 8000
多云层高于2600英尺
成为
从 26日的 06点(UTC)到 26日的 08点(UTC)
风速12节,风向西南

TAF: OLBA 250400Z 2506/2612 23018KT 7000 SCT030 SCT080 PROB30 TEMPO 2510/2612 21012G25KT -TSRA FEW020CB BKN026 BECMG 2518/2520 17006KT 8000 BKN026 BECMG 2606/2608 22012KT

超过4000个机场的气象观测和天气预报(METAR&TAF报告)。

可查询的气象台以黄色和红色小点在地图上表示。

将鼠标移到小点上方,可查看气象台名称。

然后点击查看天气观测和预报。

如需切换地图:点击带黑十字的绿色按钮放大地图;点击带横线的绿色按钮缩小地图;或者点击绿色箭头查看邻近地区的地图。


METAR-TAF: